Time;durP1;ratioP1;P1;durP2;ratioP2;P2;SDS_P1;SDS_P2;PMS_P1;PMS_P2;Temp;Humidity;BMP_temperature;BMP_pressure;BME280_temperature;BME280_humidity;BME280_pressure;Samples;Min_cycle;Max_cycle;Signal;HPM_P1;HPM_P2
2021/12/04 00:02:07;;;;;;;2.13;1.70;;;5.10;99.90;;;;;;5074673;28;20736;-46
2021/12/04 00:04:45;;;;;;;1.15;1.05;;;5.10;99.90;;;;;;5075144;28;20174;-45
2021/12/04 00:07:10;;;;;;;1.92;1.50;;;5.20;99.90;;;;;;5074920;28;20252;-45
2021/12/04 00:09:37;;;;;;;2.10;1.15;;;5.20;99.90;;;;;;5074525;28;20310;-45
2021/12/04 00:12:05;;;;;;;1.25;1.08;;;5.20;99.90;;;;;;5074935;28;20177;-45
2021/12/04 00:14:33;;;;;;;2.58;1.73;;;5.20;99.90;;;;;;5074866;28;20174;-45
2021/12/04 00:17:01;;;;;;;16.50;10.43;;;5.10;99.90;;;;;;5074789;28;20194;-45
2021/12/04 00:19:28;;;;;;;1.88;1.52;;;5.10;99.90;;;;;;5074616;28;20173;-45
2021/12/04 00:21:55;;;;;;;8.98;5.95;;;5.10;99.90;;;;;;5074739;28;20748;-45
2021/12/04 00:24:21;;;;;;;3.72;2.00;;;5.10;99.90;;;;;;5074706;28;20174;-46
2021/12/04 00:26:48;;;;;;;3.30;2.72;;;5.10;99.90;;;;;;5074422;28;20227;-45
2021/12/04 00:29:14;;;;;;;2.55;2.00;;;5.10;99.90;;;;;;5074337;28;20167;-45
2021/12/04 00:31:47;;;;;;;3.83;2.80;;;5.10;99.90;;;;;;5074262;28;20181;-45
2021/12/04 00:34:12;;;;;;;13.82;7.78;;;5.10;99.90;;;;;;5074486;28;20214;-45
2021/12/04 00:50:07;;;;;;;2.95;1.63;;;5.20;99.90;;;;;;5074052;28;20644;-45
2021/12/04 00:52:32;;;;;;;1.70;1.23;;;5.20;99.90;;;;;;5073973;28;20167;-46
2021/12/04 00:54:58;;;;;;;2.67;1.83;;;5.20;99.90;;;;;;5073890;28;20170;-45
2021/12/04 00:57:23;;;;;;;0.77;0.77;;;5.20;99.90;;;;;;5074105;28;20170;-45
2021/12/04 00:59:49;;;;;;;0.70;0.70;;;5.20;99.90;;;;;;5073729;28;20170;-45
2021/12/04 01:02:18;;;;;;;0.77;0.77;;;5.20;99.90;;;;;;5073541;28;20193;-44
2021/12/04 01:04:44;;;;;;;3.47;2.65;;;5.20;99.90;;;;;;5073703;28;20300;-44
2021/12/04 01:07:09;;;;;;;0.80;0.80;;;5.20;99.90;;;;;;5072521;28;20631;-45
2021/12/04 01:09:35;;;;;;;0.98;0.98;;;5.20;99.90;;;;;;5072956;28;20226;-46
2021/12/04 01:12:01;;;;;;;1.23;1.13;;;5.20;99.90;;;;;;5073832;28;20181;-45
2021/12/04 01:14:27;;;;;;;0.82;0.82;;;5.20;99.90;;;;;;5073554;28;20206;-45
2021/12/04 01:16:54;;;;;;;0.60;0.60;;;5.20;99.90;;;;;;5073728;28;20166;-46
2021/12/04 01:19:21;;;;;;;0.50;0.50;;;6.30;99.90;;;;;;5073362;28;20189;-45
2021/12/04 01:21:48;;;;;;;0.60;0.60;;;5.20;99.90;;;;;;5073205;28;20548;-45
2021/12/04 01:24:14;;;;;;;0.70;0.70;;;5.20;99.90;;;;;;5073325;28;20172;-45
2021/12/04 01:26:40;;;;;;;0.70;0.70;;;5.20;99.90;;;;;;5073200;28;20166;-45
2021/12/04 01:29:05;;;;;;;1.35;1.00;;;5.20;99.90;;;;;;5073225;28;20201;-46
2021/12/04 01:31:31;;;;;;;1.13;0.95;;;5.20;99.90;;;;;;5073423;28;20169;-46
2021/12/04 01:33:57;;;;;;;0.80;0.80;;;5.20;99.90;;;;;;5073041;28;20198;-46
2021/12/04 01:36:24;;;;;;;0.63;0.63;;;5.20;99.90;;;;;;5073576;28;20239;-46
2021/12/04 01:38:50;;;;;;;0.98;0.80;;;5.20;99.90;;;;;;5072970;28;20514;-45
2021/12/04 01:41:16;;;;;;;0.55;0.55;;;5.20;99.90;;;;;;5072982;28;20162;-46
2021/12/04 01:43:42;;;;;;;2.17;0.70;;;5.30;99.90;;;;;;5072863;28;20536;-46
2021/12/04 01:46:07;;;;;;;1.33;0.88;;;5.30;99.90;;;;;;5072941;28;20166;-46
2021/12/04 01:48:33;;;;;;;0.70;0.70;;;5.30;99.90;;;;;;5072728;28;20633;-45
2021/12/04 01:50:59;;;;;;;0.50;0.50;;;5.30;99.90;;;;;;5072823;28;20158;-46
2021/12/04 01:53:26;;;;;;;0.52;0.52;;;5.30;99.90;;;;;;5073111;28;20166;-45
2021/12/04 01:55:53;;;;;;;0.63;0.60;;;5.20;99.90;;;;;;5072964;28;20166;-46
2021/12/04 01:58:20;;;;;;;0.70;0.70;;;5.20;99.90;;;;;;5072542;28;20263;-45
2021/12/04 02:00:45;;;;;;;1.75;0.88;;;5.20;99.90;;;;;;5072605;28;20166;-46
2021/12/04 02:03:13;;;;;;;0.40;0.40;;;5.30;99.90;;;;;;5072378;28;20212;-45
2021/12/04 02:05:40;;;;;;;0.70;0.70;;;5.20;99.90;;;;;;5072349;28;20177;-45
2021/12/04 02:08:07;;;;;;;1.48;0.70;;;5.30;99.90;;;;;;5072354;28;20166;-45
2021/12/04 02:10:34;;;;;;;0.30;0.30;;;5.30;99.90;;;;;;5072498;28;20185;-45
2021/12/04 02:13:01;;;;;;;0.63;0.63;;;5.30;99.90;;;;;;5071080;28;20180;-46
2021/12/04 02:15:27;;;;;;;0.80;0.80;;;5.30;99.90;;;;;;5072259;28;20170;-46
2021/12/04 02:17:52;;;;;;;0.75;0.75;;;5.30;99.90;;;;;;5072650;28;20531;-45
2021/12/04 02:20:24;;;;;;;1.20;0.65;;;5.20;99.90;;;;;;5071981;28;20166;-46
2021/12/04 02:22:51;;;;;;;1.48;0.70;;;5.20;99.90;;;;;;5072574;28;20198;-46
2021/12/04 02:25:18;;;;;;;0.75;0.60;;;5.20;99.90;;;;;;5072198;28;20177;-45
2021/12/04 02:27:45;;;;;;;0.68;0.68;;;5.10;99.90;;;;;;5072434;28;20260;-44
2021/12/04 02:30:15;;;;;;;2.97;0.80;;;5.10;99.90;;;;;;5072353;28;20181;-45
2021/12/04 02:32:41;;;;;;;1.27;1.00;;;5.10;99.90;;;;;;5072131;28;20532;-44
2021/12/04 02:35:08;;;;;;;1.10;1.00;;;5.00;99.90;;;;;;5072365;28;20162;-45
2021/12/04 02:37:35;;;;;;;4.45;1.20;;;5.20;99.90;;;;;;5072061;28;20182;-45
2021/12/04 02:40:02;;;;;;;1.10;1.00;;;5.10;99.90;;;;;;5071881;28;20166;-44
2021/12/04 02:42:30;;;;;;;2.67;0.93;;;5.00;99.90;;;;;;5071949;28;20200;-44
2021/12/04 02:44:58;;;;;;;1.13;1.05;;;5.10;99.90;;;;;;5071152;28;20166;-44
2021/12/04 02:47:25;;;;;;;1.40;1.08;;;5.10;99.90;;;;;;5072194;28;20162;-44
2021/12/04 02:49:51;;;;;;;1.25;1.15;;;5.10;99.90;;;;;;5072033;28;20253;-44
2021/12/04 02:52:17;;;;;;;1.27;1.13;;;5.10;99.90;;;;;;5071545;28;20197;-44
2021/12/04 02:54:43;;;;;;;3.47;1.23;;;5.10;99.90;;;;;;5071596;28;20174;-44
2021/12/04 02:57:13;;;;;;;1.20;1.10;;;5.10;99.90;;;;;;5071634;28;20161;-45
2021/12/04 02:59:41;;;;;;;2.72;1.70;;;5.10;99.90;;;;;;5071597;28;20215;-44
2021/12/04 03:02:17;;;;;;;2.42;1.58;;;5.10;99.90;;;;;;5071615;28;20288;-45
2021/12/04 03:04:44;;;;;;;3.53;2.25;;;5.20;99.90;;;;;;5071844;28;20569;-44
2021/12/04 03:07:10;;;;;;;2.60;2.13;;;5.20;99.90;;;;;;5070197;28;20174;-44
2021/12/04 03:09:36;;;;;;;2.70;2.03;;;5.20;99.90;;;;;;5071341;28;20585;-44
2021/12/04 03:12:06;;;;;;;4.65;2.58;;;5.20;99.90;;;;;;5071501;28;20211;-44
2021/12/04 03:14:32;;;;;;;4.03;2.78;;;5.10;99.90;;;;;;5071273;28;20162;-44
2021/12/04 03:16:58;;;;;;;2.95;2.65;;;5.10;99.90;;;;;;5071544;28;20166;-44
2021/12/04 03:19:25;;;;;;;4.78;3.10;;;5.10;99.90;;;;;;5071995;28;20504;-44
2021/12/04 03:21:50;;;;;;;3.55;3.05;;;5.10;99.90;;;;;;5071349;28;20201;-44
2021/12/04 03:24:17;;;;;;;6.57;3.33;;;5.10;99.90;;;;;;5071618;28;20184;-45
2021/12/04 03:26:45;;;;;;;6.10;3.13;;;5.10;99.90;;;;;;5071258;28;20625;-44
2021/12/04 03:29:14;;;;;;;4.85;3.05;;;5.10;99.90;;;;;;5070997;28;20656;-44
2021/12/04 03:40:33;;;;;;;4.03;3.40;;;5.20;99.90;;;;;;5075569;28;20181;-45
2021/12/04 03:42:56;;;;;;;3.03;2.72;;;5.20;99.90;;;;;;5074531;28;20220;-45
2021/12/04 03:45:21;;;;;;;4.72;2.80;;;5.10;99.90;;;;;;5075237;28;20170;-47
2021/12/04 03:47:49;;;;;;;3.28;2.95;;;5.10;99.90;;;;;;5075094;28;20214;-46
2021/12/04 03:50:16;;;;;;;6.25;3.00;;;5.10;99.90;;;;;;5075150;28;20563;-45
2021/12/04 03:52:42;;;;;;;3.78;2.72;;;5.10;99.90;;;;;;5073499;28;20174;-44
2021/12/04 03:55:09;;;;;;;3.30;2.78;;;5.10;99.90;;;;;;5074703;28;20541;-44
2021/12/04 03:57:35;;;;;;;3.58;2.67;;;5.10;99.90;;;;;;5074468;28;20170;-44
2021/12/04 04:00:01;;;;;;;3.33;2.72;;;5.10;99.90;;;;;;5074744;28;20223;-44
2021/12/04 04:02:27;;;;;;;3.10;2.78;;;5.10;99.90;;;;;;5074667;28;20657;-44
2021/12/04 04:04:54;;;;;;;3.03;2.72;;;5.10;99.90;;;;;;5074866;28;20173;-44
2021/12/04 04:07:20;;;;;;;2.58;2.38;;;5.00;99.90;;;;;;5074816;28;20174;-44
2021/12/04 04:09:45;;;;;;;4.28;2.45;;;5.00;99.90;;;;;;5074315;28;20217;-44
2021/12/04 04:12:11;;;;;;;2.95;2.65;;;5.00;99.90;;;;;;5074117;28;20528;-44
2021/12/04 04:14:36;;;;;;;2.63;2.33;;;5.00;99.90;;;;;;5074720;28;20213;-44
2021/12/04 04:17:03;;;;;;;2.88;2.60;;;5.00;99.90;;;;;;5074683;28;20170;-44
2021/12/04 04:19:29;;;;;;;3.60;2.90;;;5.00;99.90;;;;;;5074405;28;20205;-44
2021/12/04 04:21:56;;;;;;;4.55;3.25;;;5.10;99.90;;;;;;5074339;28;20229;-44
2021/12/04 04:24:23;;;;;;;4.47;3.03;;;5.10;99.90;;;;;;5075082;28;20181;-45
2021/12/04 04:26:49;;;;;;;3.17;2.80;;;5.10;99.90;;;;;;5074472;28;20219;-44
2021/12/04 04:29:15;;;;;;;2.42;2.22;;;5.10;99.90;;;;;;5074320;28;20637;-44
2021/12/04 04:31:52;;;;;;;4.55;2.65;;;5.10;99.90;;;;;;5074305;28;20199;-45
2021/12/04 04:34:31;;;;;;;3.00;2.70;;;5.10;99.90;;;;;;5074613;28;20223;-44
2021/12/04 05:11:41;;;;;;;2.75;2.55;;;4.90;99.90;;;;;;5073654;28;20249;-44
2021/12/04 05:14:07;;;;;;;2.83;2.53;;;4.90;99.90;;;;;;5073586;28;20162;-44
2021/12/04 05:17:10;;;;;;;6.80;3.00;;;4.90;99.90;;;;;;5073455;28;20194;-45
2021/12/04 05:19:38;;;;;;;6.82;3.05;;;4.90;99.90;;;;;;5072543;28;20181;-45
2021/12/04 05:22:08;;;;;;;3.83;2.92;;;5.00;99.90;;;;;;5073554;28;20550;-44
2021/12/04 05:24:33;;;;;;;3.25;2.72;;;5.00;99.90;;;;;;5073328;28;20162;-44
2021/12/04 05:26:59;;;;;;;4.97;3.25;;;5.00;99.90;;;;;;5073449;28;20196;-44
2021/12/04 05:29:24;;;;;;;4.60;2.90;;;5.00;99.90;;;;;;5073565;28;20539;-45
2021/12/04 05:31:50;;;;;;;3.65;2.60;;;5.00;99.90;;;;;;5073143;28;20260;-44
2021/12/04 05:34:16;;;;;;;3.20;2.50;;;5.00;99.90;;;;;;5073081;28;20175;-44
2021/12/04 05:36:42;;;;;;;3.70;2.75;;;5.00;99.90;;;;;;5073069;28;20174;-44
2021/12/04 05:39:07;;;;;;;4.90;3.00;;;5.10;99.90;;;;;;5072963;28;20172;-44
2021/12/04 05:41:33;;;;;;;3.22;2.92;;;5.10;99.90;;;;;;5073205;28;20174;-44
2021/12/04 05:44:04;;;;;;;3.75;2.95;;;5.00;99.90;;;;;;5072919;28;20253;-45
2021/12/04 05:46:36;;;;;;;4.45;2.95;;;5.00;99.90;;;;;;5072970;28;20180;-44
2021/12/04 05:49:08;;;;;;;5.03;3.13;;;5.10;99.90;;;;;;5073048;28;20257;-45
2021/12/04 05:56:46;;;;;;;3.90;3.20;;;5.10;99.90;;;;;;5072657;28;20166;-44
2021/12/04 05:59:12;;;;;;;3.53;3.15;;;5.10;99.90;;;;;;5072655;28;20166;-44
2021/12/04 06:01:37;;;;;;;3.80;3.28;;;5.10;99.90;;;;;;5072506;28;20163;-44
2021/12/04 06:04:03;;;;;;;4.40;2.83;;;5.10;99.90;;;;;;5072584;28;20569;-45
2021/12/04 06:06:29;;;;;;;3.83;2.90;;;5.10;99.90;;;;;;5072756;28;20537;-44
2021/12/04 06:08:55;;;;;;;3.28;2.75;;;5.10;99.90;;;;;;5071323;28;20308;-44
2021/12/04 06:11:21;;;;;;;5.18;3.35;;;5.10;99.90;;;;;;5072424;28;20185;-44
2021/12/04 06:13:46;;;;;;;5.47;3.28;;;5.20;99.90;;;;;;5072599;28;20190;-45
2021/12/04 06:16:14;;;;;;;6.47;3.97;;;5.10;99.90;;;;;;5072338;28;20656;-45
2021/12/04 06:18:40;;;;;;;8.75;5.38;;;5.10;99.90;;;;;;5072579;28;20174;-45
2021/12/04 06:23:50;;;;;;;15.50;7.70;;;5.10;99.90;;;;;;5072161;28;20573;-44
2021/12/04 06:26:16;;;;;;;13.50;7.10;;;5.00;99.90;;;;;;5072362;28;20161;-45
2021/12/04 06:28:41;;;;;;;32.78;15.07;;;5.10;99.90;;;;;;5072156;28;20170;-46
2021/12/04 06:31:09;;;;;;;7.68;4.80;;;5.10;99.90;;;;;;5072164;28;20158;-46
2021/12/04 06:33:36;;;;;;;36.15;17.13;;;5.10;99.90;;;;;;5072371;28;20170;-45
2021/12/04 06:36:01;;;;;;;9.38;5.75;;;5.10;99.90;;;;;;5072099;28;20170;-45
2021/12/04 06:38:27;;;;;;;16.33;9.23;;;5.10;99.90;;;;;;5072079;28;20504;-45
2021/12/04 06:40:54;;;;;;;11.73;6.93;;;5.10;99.90;;;;;;5072297;28;20182;-44
2021/12/04 06:43:20;;;;;;;11.15;8.40;;;5.10;99.90;;;;;;5072234;28;20252;-45
2021/12/04 06:45:56;;;;;;;24.73;14.57;;;5.10;99.90;;;;;;5071917;28;20166;-45
2021/12/04 06:48:24;;;;;;;10.90;7.60;;;5.10;99.90;;;;;;5072525;28;20538;-45
2021/12/04 06:50:53;;;;;;;9.50;5.80;;;5.10;99.90;;;;;;5072209;28;20196;-44
2021/12/04 06:53:33;;;;;;;5.50;3.95;;;5.10;99.90;;;;;;5072177;28;20173;-45
2021/12/04 06:56:01;;;;;;;5.97;4.85;;;5.10;99.90;;;;;;5071804;28;20164;-45
2021/12/04 06:58:28;;;;;;;6.25;4.13;;;5.10;99.90;;;;;;5071783;28;20168;-44
2021/12/04 07:00:55;;;;;;;7.53;4.95;;;5.00;99.90;;;;;;5071961;28;20174;-44
2021/12/04 07:03:21;;;;;;;6.63;4.55;;;5.00;99.90;;;;;;5071661;28;20202;-45
2021/12/04 07:05:47;;;;;;;9.05;6.28;;;5.00;99.90;;;;;;5072253;28;20169;-47
2021/12/04 07:08:13;;;;;;;5.53;3.90;;;5.00;99.90;;;;;;5076007;28;20211;-45
2021/12/04 07:10:38;;;;;;;7.57;5.13;;;5.10;99.90;;;;;;5076118;28;20181;-45
2021/12/04 07:13:05;;;;;;;5.38;3.97;;;5.10;99.90;;;;;;5075817;28;20162;-45
2021/12/04 07:15:32;;;;;;;7.63;5.97;;;5.00;99.90;;;;;;5075745;28;20158;-45
2021/12/04 07:17:59;;;;;;;16.58;11.05;;;5.10;99.90;;;;;;5075981;28;20173;-45
2021/12/04 07:20:26;;;;;;;6.93;4.30;;;5.10;99.90;;;;;;5076021;28;20161;-46
2021/12/04 07:22:52;;;;;;;18.88;11.40;;;5.10;99.90;;;;;;5075870;28;20212;-45
2021/12/04 07:25:17;;;;;;;5.20;4.40;;;5.00;99.90;;;;;;5075389;28;20163;-45
2021/12/04 07:27:43;;;;;;;8.00;5.20;;;5.10;99.90;;;;;;5075237;28;20517;-45
2021/12/04 07:30:09;;;;;;;13.30;7.63;;;5.00;99.90;;;;;;5075241;28;20646;-46
2021/12/04 07:32:36;;;;;;;7.28;4.15;;;5.00;99.90;;;;;;5075437;28;20172;-45
2021/12/04 07:35:03;;;;;;;5.97;4.28;;;5.00;99.90;;;;;;5075349;28;20162;-45
2021/12/04 07:37:29;;;;;;;5.63;4.32;;;4.90;99.90;;;;;;5075255;28;20174;-45
2021/12/04 07:39:54;;;;;;;6.43;4.68;;;5.00;99.90;;;;;;5075546;28;20228;-45
2021/12/04 07:42:20;;;;;;;5.97;4.00;;;5.00;99.90;;;;;;5075443;28;20204;-45
2021/12/04 07:44:46;;;;;;;7.40;5.70;;;5.00;99.90;;;;;;5075228;28;20181;-45
2021/12/04 07:47:12;;;;;;;7.60;5.05;;;5.00;99.90;;;;;;5075167;28;20173;-45
2021/12/04 07:49:38;;;;;;;5.88;4.57;;;5.00;99.90;;;;;;5075159;28;20171;-45
2021/12/04 07:52:05;;;;;;;6.35;4.63;;;5.00;99.90;;;;;;5075196;28;20170;-47
2021/12/04 07:54:31;;;;;;;13.85;8.60;;;5.00;99.90;;;;;;5074825;28;20660;-45
2021/12/04 07:56:57;;;;;;;24.35;15.98;;;5.10;99.90;;;;;;5075177;28;20174;-46
2021/12/04 07:59:24;;;;;;;7.25;4.40;;;5.10;99.90;;;;;;5075250;28;20681;-46
2021/12/04 08:01:49;;;;;;;11.00;7.72;;;5.10;99.90;;;;;;5074747;28;20177;-43
2021/12/04 08:04:15;;;;;;;9.40;6.40;;;5.10;99.90;;;;;;5069544;28;20526;-45
2021/12/04 08:06:40;;;;;;;11.15;5.03;;;5.10;99.90;;;;;;5065476;28;20643;-44
2021/12/04 08:09:06;;;;;;;14.73;7.38;;;5.20;99.90;;;;;;5059492;28;20214;-45
2021/12/04 08:11:32;;;;;;;8.18;5.38;;;5.20;99.90;;;;;;5054513;28;20175;-45
2021/12/04 08:13:57;;;;;;;7.65;4.55;;;5.20;99.90;;;;;;5054418;28;20170;-44
2021/12/04 08:16:26;;;;;;;8.95;5.40;;;5.20;99.90;;;;;;5054710;28;20230;-45
2021/12/04 08:18:53;;;;;;;5.47;3.83;;;5.20;99.90;;;;;;5054339;28;20173;-45
2021/12/04 08:21:20;;;;;;;6.53;4.22;;;5.20;99.90;;;;;;5054772;28;20539;-45
2021/12/04 08:23:46;;;;;;;5.57;4.38;;;5.10;99.90;;;;;;5053332;28;21175;-45
2021/12/04 08:26:11;;;;;;;4.38;3.80;;;5.20;99.90;;;;;;5054445;28;20166;-44
2021/12/04 08:28:37;;;;;;;5.57;4.13;;;5.20;99.90;;;;;;5054386;28;20171;-44
2021/12/04 08:31:02;;;;;;;6.07;4.60;;;5.10;99.90;;;;;;5054620;28;20162;-45
2021/12/04 08:33:28;;;;;;;8.32;4.63;;;5.10;99.90;;;;;;5054317;28;20174;-45
2021/12/04 08:35:54;;;;;;;6.10;4.43;;;5.20;99.90;;;;;;5054569;28;20166;-45
2021/12/04 08:38:20;;;;;;;13.63;7.18;;;5.20;99.90;;;;;;5054175;28;20538;-44
2021/12/04 08:40:45;;;;;;;7.22;5.03;;;5.30;99.90;;;;;;5053693;28;20167;-45
2021/12/04 08:43:12;;;;;;;8.45;5.13;;;5.30;99.90;;;;;;5053825;28;20688;-45
2021/12/04 08:45:38;;;;;;;8.13;5.20;;;5.30;99.90;;;;;;5054036;28;20198;-45
2021/12/04 08:48:04;;;;;;;9.18;5.25;;;5.40;99.90;;;;;;5053838;28;20202;-46
2021/12/04 08:50:31;;;;;;;8.13;5.30;;;5.30;99.90;;;;;;5053927;28;20167;-45
2021/12/04 08:53:00;;;;;;;9.48;4.90;;;5.40;99.90;;;;;;5053894;28;20528;-45
2021/12/04 08:55:28;;;;;;;10.35;6.25;;;5.40;99.90;;;;;;5054023;28;20159;-45
2021/12/04 08:57:54;;;;;;;7.85;5.10;;;5.50;99.90;;;;;;5054047;28;20166;-46
2021/12/04 09:00:25;;;;;;;8.55;4.97;;;5.50;99.90;;;;;;5053378;28;20174;-45
2021/12/04 09:02:51;;;;;;;11.85;5.57;;;5.60;99.90;;;;;;5053855;28;20202;-45
2021/12/04 09:05:18;;;;;;;9.88;4.85;;;5.60;99.90;;;;;;5053715;28;20589;-46
2021/12/04 09:07:45;;;;;;;9.77;5.13;;;5.60;99.90;;;;;;5054015;28;20206;-47
2021/12/04 09:10:12;;;;;;;6.13;3.95;;;5.60;99.90;;;;;;5053041;28;20218;-46
2021/12/04 09:12:38;;;;;;;7.07;4.18;;;5.60;99.90;;;;;;5053023;28;20179;-46
2021/12/04 09:15:08;;;;;;;9.20;4.68;;;5.60;99.90;;;;;;5053388;28;20171;-45
2021/12/04 09:17:33;;;;;;;9.95;5.20;;;5.70;99.90;;;;;;5051106;28;20597;-45
2021/12/04 09:19:59;;;;;;;7.60;4.40;;;5.70;99.90;;;;;;5053293;28;20170;-45
2021/12/04 09:22:29;;;;;;;5.60;4.15;;;5.70;99.90;;;;;;5053535;28;20289;-47
2021/12/04 09:24:58;;;;;;;7.25;4.45;;;5.80;99.90;;;;;;5053589;28;20622;-45
2021/12/04 09:30:11;;;;;;;5.65;3.72;;;5.80;99.90;;;;;;5052941;28;20197;-45
2021/12/04 09:33:25;;;;;;;6.38;5.07;;;5.70;99.90;;;;;;5053171;28;20205;-45
2021/12/04 10:00:37;;;;;;;7.05;3.67;;;5.80;99.90;;;;;;5052746;28;20169;-45
2021/12/04 10:17:04;;;;;;;15.07;9.45;;;6.00;99.90;;;;;;5052697;28;20167;-45
2021/12/04 10:33:16;;;;;;;6.43;4.65;;;6.50;99.90;;;;;;5052273;28;20560;-45
2021/12/04 10:35:43;;;;;;;6.57;4.63;;;6.60;99.90;;;;;;5052408;28;20575;-45
2021/12/04 10:38:21;;;;;;;39.67;23.17;;;6.40;99.90;;;;;;5051684;28;20167;-46
2021/12/04 10:40:49;;;;;;;10.10;6.25;;;6.60;99.90;;;;;;5051784;28;20158;-47
2021/12/04 10:43:24;;;;;;;15.80;9.20;;;6.50;99.90;;;;;;5051768;28;20674;-46
2021/12/04 10:45:57;;;;;;;18.45;10.05;;;6.60;99.90;;;;;;5051724;28;20162;-45
2021/12/04 10:48:27;;;;;;;7.68;5.57;;;6.60;99.90;;;;;;5052056;28;20602;-46
2021/12/04 10:53:46;;;;;;;3.33;2.92;;;6.60;99.90;;;;;;5051458;28;20171;-46
2021/12/04 10:56:24;;;;;;;5.70;3.35;;;6.50;99.90;;;;;;5051777;28;20159;-45
2021/12/04 10:59:17;;;;;;;4.88;3.70;;;6.50;99.90;;;;;;5051903;28;20182;-46
2021/12/04 11:36:12;;;;;;;7.45;5.22;;;6.40;99.90;;;;;;5051466;28;20174;-44
2021/12/04 11:43:02;;;;;;;6.93;4.57;;;6.50;99.90;;;;;;5051090;28;20202;-45
2021/12/04 11:48:41;;;;;;;10.60;8.38;;;6.50;99.90;;;;;;5051457;28;20175;-45
2021/12/04 11:51:32;;;;;;;14.02;9.90;;;6.60;99.90;;;;;;5050972;28;20167;-45
2021/12/04 11:53:58;;;;;;;7.25;6.47;;;6.60;99.90;;;;;;5053604;28;20187;-46
2021/12/04 11:56:28;;;;;;;10.82;6.35;;;6.70;99.90;;;;;;5055262;28;20293;-45
2021/12/04 11:58:54;;;;;;;13.93;9.07;;;6.70;99.90;;;;;;5055141;28;20634;-44
2021/12/04 12:01:35;;;;;;;85.20;45.67;;;6.70;99.90;;;;;;5055237;28;20169;-45
2021/12/04 12:04:11;;;;;;;19.35;12.82;;;6.80;99.90;;;;;;5054180;28;20435;-45
2021/12/04 12:06:42;;;;;;;23.88;14.75;;;6.80;99.90;;;;;;5054706;28;20251;-45
2021/12/04 12:09:18;;;;;;;7.45;4.68;;;6.80;99.90;;;;;;5054556;28;20222;-44
2021/12/04 12:12:01;;;;;;;5.22;4.70;;;6.80;99.90;;;;;;5054715;28;20253;-45
2021/12/04 12:14:40;;;;;;;25.73;15.75;;;6.90;99.90;;;;;;5054891;28;20179;-44
2021/12/04 12:17:08;;;;;;;11.55;7.85;;;6.80;99.90;;;;;;5054821;28;20265;-44
2021/12/04 12:19:39;;;;;;;17.10;11.57;;;6.90;99.90;;;;;;5054707;28;20519;-45
2021/12/04 12:22:15;;;;;;;7.45;5.45;;;6.80;99.90;;;;;;5054585;28;20182;-44
2021/12/04 12:31:45;;;;;;;25.20;14.15;;;7.00;99.90;;;;;;5054533;28;20166;-44
2021/12/04 12:33:28;;;;;;;13.07;8.50;;;6.80;99.90;;;;;;5054092;28;20185;-44
2021/12/04 12:38:54;;;;;;;10.30;7.15;;;6.90;99.90;;;;;;5054128;28;20174;-45
2021/12/04 12:41:26;;;;;;;6.40;3.20;;;6.90;99.90;;;;;;5054314;28;20170;-44
2021/12/04 12:44:00;;;;;;;4.35;2.75;;;6.90;99.90;;;;;;5054166;28;20739;-44
2021/12/04 12:46:34;;;;;;;3.80;3.25;;;6.80;99.90;;;;;;5054095;28;20178;-45
2021/12/04 12:48:59;;;;;;;3.58;2.92;;;6.70;99.90;;;;;;5053989;28;20205;-45
2021/12/04 12:51:32;;;;;;;4.55;3.38;;;6.70;99.90;;;;;;5054215;28;20191;-45
2021/12/04 12:54:03;;;;;;;5.18;3.00;;;6.80;99.90;;;;;;5053947;28;20170;-45
2021/12/04 12:56:31;;;;;;;3.58;3.00;;;6.80;99.90;;;;;;5054054;28;20225;-45
2021/12/04 12:59:12;;;;;;;12.93;7.45;;;6.80;99.90;;;;;;5063186;28;20516;-44
2021/12/04 13:13:37;;;;;;;4.57;3.58;;;6.50;99.90;;;;;;5073536;28;20656;-45
2021/12/04 13:16:16;;;;;;;4.75;3.45;;;6.40;99.90;;;;;;5072596;28;20646;-44
2021/12/04 13:18:49;;;;;;;4.93;3.65;;;6.40;99.90;;;;;;5072615;28;20174;-45
2021/12/04 13:21:15;;;;;;;5.70;3.80;;;6.40;99.90;;;;;;5073431;28;20621;-44
2021/12/04 13:23:48;;;;;;;9.20;6.25;;;6.50;99.90;;;;;;5073516;28;20216;-45
2021/12/04 13:26:14;;;;;;;9.15;6.30;;;6.50;99.90;;;;;;5073512;28;20169;-44
2021/12/04 13:28:44;;;;;;;7.40;4.55;;;6.60;99.90;;;;;;5073303;28;20702;-44
2021/12/04 13:31:10;;;;;;;5.78;4.82;;;6.60;99.90;;;;;;5072662;28;20169;-45
2021/12/04 13:33:43;;;;;;;6.55;5.00;;;6.60;99.90;;;;;;5072484;28;20176;-44
2021/12/04 13:36:14;;;;;;;10.88;8.23;;;6.60;99.90;;;;;;5072992;28;20166;-43
2021/12/04 13:38:39;;;;;;;13.48;7.53;;;6.50;99.90;;;;;;5072811;28;20173;-44
2021/12/04 13:41:05;;;;;;;11.05;6.45;;;6.50;99.90;;;;;;5072819;28;20166;-44
2021/12/04 13:43:31;;;;;;;9.82;7.20;;;6.60;99.90;;;;;;5072663;28;20303;-44
2021/12/04 13:46:02;;;;;;;9.90;4.40;;;6.60;99.90;;;;;;5072598;28;20166;-44
2021/12/04 13:48:29;;;;;;;6.82;4.10;;;6.60;99.90;;;;;;5072822;28;20166;-44
2021/12/04 13:50:55;;;;;;;9.95;4.72;;;6.60;99.90;;;;;;5072855;28;20158;-44
2021/12/04 13:53:26;;;;;;;7.15;3.58;;;6.50;99.90;;;;;;5073094;28;20252;-44
2021/12/04 13:55:57;;;;;;;4.88;3.85;;;6.50;99.90;;;;;;5073259;28;20174;-44
2021/12/04 13:58:23;;;;;;;5.32;3.90;;;6.50;99.90;;;;;;5072697;28;20657;-44
2021/12/04 14:00:49;;;;;;;6.30;4.10;;;6.50;99.90;;;;;;5072621;28;20209;-44
2021/12/04 14:03:23;;;;;;;5.55;4.05;;;6.40;99.90;;;;;;5072011;28;20208;-44
2021/12/04 14:05:49;;;;;;;7.63;4.28;;;6.40;99.90;;;;;;5072245;28;20158;-44
2021/12/04 14:08:15;;;;;;;15.88;4.70;;;6.40;99.90;;;;;;5072105;28;20189;-44
2021/12/04 14:10:42;;;;;;;10.70;5.30;;;6.40;99.90;;;;;;5072657;28;20174;-44
2021/12/04 14:13:09;;;;;;;15.05;6.00;;;6.50;99.90;;;;;;5072589;28;20185;-44
2021/12/04 14:15:35;;;;;;;5.40;4.47;;;6.60;99.90;;;;;;5071499;28;20162;-43
2021/12/04 14:18:06;;;;;;;6.35;4.43;;;6.50;99.90;;;;;;5072152;28;20222;-44
2021/12/04 14:20:34;;;;;;;5.00;4.50;;;6.50;99.90;;;;;;5072201;28;20169;-44
2021/12/04 14:23:00;;;;;;;6.28;4.65;;;6.50;99.90;;;;;;5070866;28;20210;-47
2021/12/04 14:25:27;;;;;;;6.18;5.28;;;6.50;99.90;;;;;;5072526;28;20628;-44
2021/12/04 14:27:54;;;;;;;8.35;5.05;;;6.50;99.90;;;;;;5072440;28;20176;-45
2021/12/04 14:30:21;;;;;;;6.05;5.15;;;6.50;99.90;;;;;;5071950;28;20169;-44
2021/12/04 14:32:53;;;;;;;6.80;4.85;;;6.40;99.90;;;;;;5072251;28;20194;-44
2021/12/04 14:35:21;;;;;;;7.88;5.65;;;6.40;99.90;;;;;;5072087;28;20177;-44
2021/12/04 14:37:50;;;;;;;10.48;6.63;;;6.40;99.90;;;;;;5072012;28;20166;-44
2021/12/04 14:40:22;;;;;;;9.48;7.35;;;6.40;99.90;;;;;;5071065;28;20590;-44
2021/12/04 14:42:49;;;;;;;8.82;6.38;;;6.30;99.90;;;;;;5071516;28;20217;-44
2021/12/04 14:45:20;;;;;;;9.55;6.10;;;6.30;99.90;;;;;;5070903;28;20170;-45
2021/12/04 14:48:17;;;;;;;13.32;8.38;;;6.20;99.90;;;;;;5071955;28;20188;-44
2021/12/04 14:50:47;;;;;;;11.30;7.47;;;6.20;99.90;;;;;;5068544;28;20532;-43
2021/12/04 14:53:15;;;;;;;9.55;6.53;;;6.20;99.90;;;;;;5071627;28;20174;-44
2021/12/04 14:55:43;;;;;;;7.75;5.72;;;6.20;99.90;;;;;;5071398;28;20162;-44
2021/12/04 14:58:14;;;;;;;5.60;4.82;;;6.20;99.90;;;;;;5071537;28;20162;-44
2021/12/04 15:00:59;;;;;;;6.32;5.38;;;6.20;99.90;;;;;;5071725;28;20166;-44
2021/12/04 15:03:51;;;;;;;11.45;6.70;;;6.20;99.90;;;;;;5071683;28;20731;-43
2021/12/04 15:06:18;;;;;;;6.32;4.97;;;6.20;99.90;;;;;;5071226;28;20169;-44
2021/12/04 15:08:49;;;;;;;7.25;4.55;;;6.10;99.90;;;;;;5071041;28;20217;-43
2021/12/04 15:11:19;;;;;;;6.75;5.03;;;6.10;99.90;;;;;;5071730;28;20166;-43
2021/12/04 15:14:14;;;;;;;5.30;4.38;;;6.10;99.90;;;;;;5071456;28;20181;-43
2021/12/04 15:16:48;;;;;;;7.80;4.85;;;6.10;99.90;;;;;;5071398;28;20235;-43
2021/12/04 15:19:21;;;;;;;5.07;4.45;;;6.00;99.90;;;;;;5071613;28;20169;-43
2021/12/04 15:21:56;;;;;;;10.60;5.03;;;6.00;99.90;;;;;;5071598;28;20215;-43
2021/12/04 15:24:28;;;;;;;7.20;4.43;;;6.00;99.90;;;;;;5071751;28;20189;-43
2021/12/04 15:27:01;;;;;;;6.75;4.50;;;6.00;99.90;;;;;;5072214;28;20278;-43
2021/12/04 15:29:33;;;;;;;11.13;4.80;;;6.00;99.90;;;;;;5074763;28;20520;-43
2021/12/04 15:32:01;;;;;;;6.68;5.35;;;5.90;99.90;;;;;;5075227;28;20300;-43
2021/12/04 15:34:44;;;;;;;3.58;2.78;;;6.00;99.90;;;;;;5075347;28;20174;-43
2021/12/04 15:37:10;;;;;;;5.07;2.60;;;5.90;99.90;;;;;;5075459;28;20174;-43
2021/12/04 15:39:40;;;;;;;3.65;3.13;;;5.80;99.90;;;;;;5071661;28;20652;-44
2021/12/04 15:47:25;;;;;;;4.53;2.72;;;5.80;99.90;;;;;;5075049;28;20241;-44
2021/12/04 15:52:57;;;;;;;3.38;2.83;;;5.80;99.90;;;;;;5075085;28;20176;-43
2021/12/04 15:55:25;;;;;;;3.22;2.92;;;5.80;99.90;;;;;;5075341;28;20197;-44
2021/12/04 15:58:01;;;;;;;4.05;3.25;;;5.90;99.90;;;;;;5073895;28;20208;-43
2021/12/04 16:00:31;;;;;;;2.85;2.55;;;5.80;99.90;;;;;;5074845;28;20165;-43
2021/12/04 16:02:59;;;;;;;8.30;4.88;;;5.80;99.90;;;;;;5074372;28;20252;-43
2021/12/04 16:05:28;;;;;;;5.65;4.30;;;5.90;99.90;;;;;;5075129;28;20186;-43
2021/12/04 16:08:12;;;;;;;3.33;3.03;;;5.80;99.90;;;;;;5075301;28;20206;-43
2021/12/04 16:10:45;;;;;;;3.80;3.20;;;5.90;99.90;;;;;;5074492;28;20178;-42
2021/12/04 16:13:16;;;;;;;6.38;3.85;;;5.90;99.90;;;;;;5074552;28;20211;-44
2021/12/04 16:15:43;;;;;;;3.47;3.05;;;5.90;99.90;;;;;;5074013;28;20184;-43
2021/12/04 16:18:09;;;;;;;4.68;2.67;;;5.80;99.90;;;;;;5074640;28;20174;-44